createdAt,value
2023-03-18T00:00:11.738Z,4.56
2023-03-18T00:02:40.410Z,4.51
2023-03-18T00:05:08.654Z,4.63
2023-03-18T00:07:36.254Z,4.59
2023-03-18T00:10:04.445Z,4.56
2023-03-18T00:12:32.406Z,4.60
2023-03-18T00:14:59.738Z,4.48
2023-03-18T00:17:26.404Z,4.39
2023-03-18T00:19:52.839Z,4.41
2023-03-18T00:22:19.363Z,4.32
2023-03-18T00:24:45.944Z,4.43
2023-03-18T00:27:12.416Z,4.23
2023-03-18T00:29:39.842Z,4.37
2023-03-18T00:32:09.041Z,4.20
2023-03-18T00:34:35.506Z,4.10
2023-03-18T00:37:01.954Z,4.17
2023-03-18T00:39:32.937Z,4.12
2023-03-18T00:42:01.960Z,4.12
2023-03-18T00:44:28.885Z,4.08
2023-03-18T00:46:55.504Z,4.08
2023-03-18T00:49:22.018Z,4.12
2023-03-18T00:51:48.500Z,4.10
2023-03-18T00:54:18.109Z,4.08
2023-03-18T00:56:44.605Z,4.01
2023-03-18T00:59:11.810Z,4.01
2023-03-18T01:01:39.111Z,4.10
2023-03-18T01:04:06.574Z,4.19
2023-03-18T01:06:35.517Z,4.07
2023-03-18T01:09:05.011Z,3.94
2023-03-18T01:11:31.749Z,3.97
2023-03-18T01:13:59.509Z,3.91
2023-03-18T01:16:26.753Z,3.86
2023-03-18T01:18:54.066Z,3.84
2023-03-18T01:21:20.910Z,3.78
2023-03-18T01:23:53.312Z,3.63
2023-03-18T01:26:20.201Z,3.84
2023-03-18T01:28:47.981Z,3.66
2023-03-18T01:31:15.461Z,3.72
2023-03-18T01:33:44.403Z,3.69
2023-03-18T01:36:11.525Z,3.70
2023-03-18T01:38:38.895Z,3.60
2023-03-18T01:41:12.192Z,3.55
2023-03-18T01:43:42.658Z,3.49
2023-03-18T01:46:37.355Z,3.55
2023-03-18T01:49:12.459Z,3.50
2023-03-18T01:51:41.751Z,3.40
2023-03-18T01:54:10.323Z,3.29
2023-03-18T01:56:40.519Z,3.35
2023-03-18T01:59:09.636Z,3.32
2023-03-18T02:02:07.128Z,3.32
2023-03-18T02:04:40.055Z,3.31
2023-03-18T02:07:13.483Z,3.32
2023-03-18T02:09:40.215Z,3.22
2023-03-18T02:12:08.609Z,3.27
2023-03-18T02:14:35.199Z,3.15
2023-03-18T02:17:05.960Z,3.16
2023-03-18T02:20:09.224Z,3.21
2023-03-18T02:22:49.519Z,3.20
2023-03-18T02:25:33.564Z,3.21
2023-03-18T02:28:09.465Z,3.22
2023-03-18T02:30:41.398Z,3.23
2023-03-18T02:33:11.197Z,3.21
2023-03-18T02:35:38.947Z,3.19
2023-03-18T02:38:05.652Z,3.17
2023-03-18T02:40:38.010Z,3.19
2023-03-18T02:43:31.465Z,3.17
2023-03-18T02:46:16.505Z,3.26
2023-03-18T02:48:45.916Z,3.26
2023-03-18T02:51:14.419Z,3.29
2023-03-18T02:53:41.764Z,3.33
2023-03-18T02:56:08.844Z,3.34
2023-03-18T02:58:36.776Z,3.38
2023-03-18T03:01:05.408Z,3.48
2023-03-18T03:03:32.238Z,3.47
2023-03-18T03:05:58.708Z,3.57
2023-03-18T03:08:25.457Z,3.61
2023-03-18T03:10:52.355Z,3.63
2023-03-18T03:13:21.032Z,3.71
2023-03-18T03:15:48.588Z,3.75
2023-03-18T03:18:16.545Z,3.79
2023-03-18T03:20:44.791Z,3.92
2023-03-18T03:23:13.977Z,3.78
2023-03-18T03:25:40.426Z,3.84
2023-03-18T03:28:08.385Z,3.95
2023-03-18T03:30:35.491Z,3.96
2023-03-18T03:33:02.686Z,3.97
2023-03-18T03:35:29.304Z,3.98
2023-03-18T03:37:55.776Z,4.00
2023-03-18T03:40:23.103Z,4.08
2023-03-18T03:42:51.087Z,4.22
2023-03-18T03:45:19.195Z,4.17
2023-03-18T03:47:47.052Z,4.15
2023-03-18T03:50:15.849Z,4.30
2023-03-18T03:52:43.407Z,4.29
2023-03-18T03:55:14.044Z,4.27
2023-03-18T03:57:40.860Z,4.29
2023-03-18T04:00:16.562Z,4.31
2023-03-18T04:02:49.221Z,4.38
2023-03-18T04:05:19.553Z,4.45
2023-03-18T04:07:47.720Z,4.34
2023-03-18T04:10:17.338Z,4.29
2023-03-18T04:12:45.905Z,4.32
2023-03-18T04:15:14.138Z,4.28
2023-03-18T04:17:42.610Z,4.26
2023-03-18T04:20:10.804Z,4.33
2023-03-18T04:22:37.720Z,4.20
2023-03-18T04:25:06.771Z,4.32
2023-03-18T04:27:33.818Z,4.37
2023-03-18T04:30:06.861Z,4.27
2023-03-18T04:32:39.906Z,4.33
2023-03-18T04:35:07.372Z,4.30
2023-03-18T04:37:37.333Z,4.22
2023-03-18T04:40:06.242Z,4.17
2023-03-18T04:42:32.809Z,4.14
2023-03-18T04:44:59.597Z,4.11
2023-03-18T04:47:26.362Z,4.14
2023-03-18T04:49:54.222Z,3.84
2023-03-18T04:52:20.800Z,4.18
2023-03-18T04:54:48.048Z,4.08
2023-03-18T04:57:16.518Z,4.07
2023-03-18T04:59:48.860Z,4.13
2023-03-18T05:02:15.527Z,4.07
2023-03-18T05:04:42.692Z,4.12
2023-03-18T05:07:13.466Z,4.07
2023-03-18T05:09:42.478Z,4.15
2023-03-18T05:12:14.804Z,4.14
2023-03-18T05:14:42.853Z,4.06
2023-03-18T05:17:20.470Z,4.00
2023-03-18T05:19:54.694Z,3.92
2023-03-18T05:22:23.111Z,4.01
2023-03-18T05:24:55.905Z,3.95
2023-03-18T05:27:24.656Z,3.90
2023-03-18T05:29:58.669Z,3.99
2023-03-18T05:32:33.233Z,4.02
2023-03-18T05:35:05.498Z,4.00
2023-03-18T05:37:36.951Z,3.90
2023-03-18T05:40:11.945Z,4.01
2023-03-18T05:42:57.112Z,3.99
2023-03-18T05:45:33.627Z,4.05
2023-03-18T05:48:00.627Z,4.03
2023-03-18T05:50:35.963Z,4.07
2023-03-18T05:53:06.660Z,4.14
2023-03-18T05:55:38.536Z,4.16
2023-03-18T05:58:05.848Z,4.13
2023-03-18T06:00:34.433Z,4.30
2023-03-18T06:03:02.229Z,4.31
2023-03-18T06:05:29.771Z,4.06
2023-03-18T06:07:57.463Z,4.28
2023-03-18T06:10:25.342Z,4.22
2023-03-18T06:12:52.627Z,4.44
2023-03-18T06:15:19.494Z,4.23
2023-03-18T06:17:47.275Z,4.00
2023-03-18T06:20:15.781Z,4.53
2023-03-18T06:22:43.715Z,4.62
2023-03-18T06:25:10.862Z,4.21
2023-03-18T06:27:39.180Z,4.47
2023-03-18T06:30:06.794Z,4.59
2023-03-18T06:32:35.773Z,4.59
2023-03-18T06:35:20.390Z,4.85
2023-03-18T06:37:47.221Z,4.87
2023-03-18T06:40:14.410Z,4.97
2023-03-18T06:42:41.232Z,4.89
2023-03-18T06:45:17.083Z,5.17
2023-03-18T06:47:52.240Z,4.97
2023-03-18T06:50:19.145Z,5.20
2023-03-18T06:52:45.651Z,5.50
2023-03-18T06:55:15.737Z,5.67
2023-03-18T06:57:45.604Z,5.52
2023-03-18T07:00:15.927Z,5.82
2023-03-18T07:02:43.256Z,5.95
2023-03-18T07:05:13.011Z,6.02
2023-03-18T07:07:41.026Z,6.24
2023-03-18T07:10:10.073Z,6.27
2023-03-18T07:12:36.931Z,6.53
2023-03-18T07:15:03.974Z,6.54
2023-03-18T07:17:30.878Z,6.33
2023-03-18T07:19:58.116Z,6.97
2023-03-18T07:22:25.059Z,7.07
2023-03-18T07:24:52.337Z,7.51
2023-03-18T07:27:18.774Z,7.86
2023-03-18T07:29:45.458Z,8.25
2023-03-18T07:32:11.938Z,8.15
2023-03-18T07:34:38.389Z,8.57
2023-03-18T07:37:04.904Z,8.64
2023-03-18T07:39:31.850Z,8.58
2023-03-18T07:41:58.342Z,8.51
2023-03-18T07:44:29.338Z,8.43
2023-03-18T07:46:55.998Z,8.34
2023-03-18T07:49:23.743Z,8.41
2023-03-18T07:51:50.355Z,8.28
2023-03-18T07:54:18.014Z,8.57
2023-03-18T07:56:44.612Z,8.48
2023-03-18T07:59:12.297Z,8.71
2023-03-18T08:01:39.629Z,8.60
2023-03-18T08:04:06.162Z,8.53
2023-03-18T08:06:32.879Z,8.62
2023-03-18T08:08:59.950Z,9.21
2023-03-18T08:11:26.833Z,9.26
2023-03-18T08:13:53.299Z,8.94
2023-03-18T08:16:19.815Z,9.05
2023-03-18T08:18:46.324Z,9.12
2023-03-18T08:21:12.831Z,9.00
2023-03-18T08:23:39.346Z,9.18
2023-03-18T08:26:06.015Z,9.02
2023-03-18T08:28:32.509Z,9.48
2023-03-18T08:30:59.308Z,9.52
2023-03-18T08:33:27.568Z,9.77
2023-03-18T08:35:56.160Z,9.85
2023-03-18T08:38:23.842Z,9.73
2023-03-18T08:40:51.130Z,10.08
2023-03-18T08:43:18.037Z,10.11
2023-03-18T08:45:44.762Z,10.00
2023-03-18T08:48:11.325Z,9.93
2023-03-18T08:50:37.805Z,10.08
2023-03-18T08:53:05.659Z,9.80
2023-03-18T08:55:39.377Z,10.01
2023-03-18T08:58:06.600Z,10.45
2023-03-18T09:00:35.259Z,10.28
2023-03-18T09:03:02.602Z,10.58
2023-03-18T09:05:30.428Z,10.66
2023-03-18T09:07:58.692Z,10.75
2023-03-18T09:10:26.176Z,10.88
2023-03-18T09:12:52.751Z,11.02
2023-03-18T09:15:20.633Z,10.63
2023-03-18T09:18:03.888Z,11.24
2023-03-18T09:20:34.818Z,10.61
2023-03-18T09:23:02.268Z,11.16
2023-03-18T09:25:28.743Z,11.30
2023-03-18T09:27:55.280Z,11.35
2023-03-18T09:30:21.880Z,11.48
2023-03-18T09:32:48.871Z,11.30
2023-03-18T09:35:16.396Z,11.59
2023-03-18T09:37:43.931Z,11.61
2023-03-18T09:40:27.743Z,11.61
2023-03-18T09:43:29.377Z,11.75
2023-03-18T09:46:24.843Z,11.73
2023-03-18T09:49:11.093Z,11.74
2023-03-18T09:51:59.579Z,11.76
2023-03-18T09:54:44.675Z,11.84
2023-03-18T09:57:42.931Z,11.92
2023-03-18T10:00:20.697Z,12.03
2023-03-18T10:02:55.207Z,12.19
2023-03-18T10:05:34.246Z,12.20
2023-03-18T10:08:10.282Z,12.25
2023-03-18T10:10:40.505Z,12.45
2023-03-18T10:13:18.881Z,12.57
2023-03-18T10:15:57.006Z,12.71
2023-03-18T10:18:32.081Z,12.81
2023-03-18T10:21:43.210Z,12.88
2023-03-18T10:24:19.327Z,12.98
2023-03-18T10:26:57.616Z,13.14
2023-03-18T10:29:37.824Z,13.14
2023-03-18T10:32:46.423Z,13.24
2023-03-18T10:35:38.998Z,13.43
2023-03-18T10:38:24.305Z,13.44
2023-03-18T10:40:51.486Z,13.72
2023-03-18T10:43:25.142Z,13.65
2023-03-18T10:46:02.012Z,13.70
2023-03-18T10:48:34.744Z,13.84
2023-03-18T10:51:16.849Z,14.26
2023-03-18T10:54:07.397Z,14.28
2023-03-18T10:56:36.525Z,14.52
2023-03-18T10:59:11.866Z,14.17
2023-03-18T11:01:39.413Z,14.51
2023-03-18T11:04:11.964Z,14.56
2023-03-18T11:07:01.621Z,14.82
2023-03-18T11:09:34.091Z,15.06
2023-03-18T11:12:07.604Z,15.36
2023-03-18T11:14:37.433Z,15.42
2023-03-18T11:17:22.409Z,15.61
2023-03-18T11:20:00.717Z,15.66
2023-03-18T11:22:28.971Z,15.63
2023-03-18T11:25:11.525Z,15.71
2023-03-18T11:27:42.513Z,15.72
2023-03-18T11:30:33.651Z,15.73
2023-03-18T11:33:12.950Z,15.33
2023-03-18T11:35:44.271Z,15.26
2023-03-18T11:38:29.987Z,15.35
2023-03-18T11:41:08.491Z,15.62
2023-03-18T11:43:37.696Z,15.58
2023-03-18T11:46:09.386Z,15.34
2023-03-18T11:48:42.233Z,15.27
2023-03-18T11:51:25.200Z,15.57
2023-03-18T11:54:05.652Z,15.43
2023-03-18T11:56:44.920Z,15.18
2023-03-18T11:59:27.778Z,15.38
2023-03-18T12:02:17.451Z,15.27
2023-03-18T12:04:50.270Z,15.36
2023-03-18T12:07:23.509Z,15.30
2023-03-18T12:10:00.381Z,15.13
2023-03-18T12:12:54.184Z,14.89
2023-03-18T12:15:25.901Z,15.09
2023-03-18T12:18:23.425Z,15.24
2023-03-18T12:20:53.119Z,15.07
2023-03-18T12:23:56.325Z,15.27
2023-03-18T12:26:35.227Z,15.07
2023-03-18T12:29:42.704Z,15.09
2023-03-18T12:32:19.143Z,15.10
2023-03-18T12:35:07.805Z,15.04
2023-03-18T12:38:16.305Z,14.91
2023-03-18T12:40:49.349Z,15.22
2023-03-18T12:43:32.735Z,15.24
2023-03-18T12:46:18.073Z,15.14
2023-03-18T12:48:52.797Z,15.28
2023-03-18T12:51:25.418Z,15.25
2023-03-18T12:54:08.144Z,15.35
2023-03-18T12:56:40.758Z,15.00
2023-03-18T12:59:16.806Z,15.04
2023-03-18T13:01:53.350Z,15.15
2023-03-18T13:04:22.549Z,15.11
2023-03-18T13:07:05.826Z,15.00
2023-03-18T13:09:43.817Z,15.30
2023-03-18T13:12:35.609Z,15.28
2023-03-18T13:15:32.962Z,15.08
2023-03-18T13:18:19.244Z,15.03
2023-03-18T13:20:49.198Z,15.11
2023-03-18T13:23:34.987Z,15.11
2023-03-18T13:26:27.422Z,15.26
2023-03-18T13:29:30.179Z,15.39
2023-03-18T13:32:07.160Z,15.16
2023-03-18T13:35:09.296Z,15.20
2023-03-18T13:37:51.989Z,15.41
2023-03-18T13:40:27.403Z,15.30
2023-03-18T13:42:59.637Z,15.43
2023-03-18T13:45:39.189Z,15.37
2023-03-18T13:48:10.965Z,15.29
2023-03-18T13:50:50.838Z,15.41
2023-03-18T13:53:30.153Z,15.47
2023-03-18T13:55:57.638Z,15.64
2023-03-18T13:58:27.657Z,15.57
2023-03-18T14:00:54.261Z,15.64
2023-03-18T14:03:29.910Z,15.53
2023-03-18T14:06:08.587Z,15.64
2023-03-18T14:08:38.193Z,15.65
2023-03-18T14:11:14.116Z,15.64
2023-03-18T14:13:40.808Z,15.46
2023-03-18T14:16:12.960Z,15.71
2023-03-18T14:18:39.736Z,15.57
2023-03-18T14:21:23.933Z,15.71
2023-03-18T14:24:21.832Z,15.68
2023-03-18T14:27:04.301Z,15.73
2023-03-18T14:29:37.044Z,15.66
2023-03-18T14:32:35.795Z,15.74
2023-03-18T14:35:18.611Z,15.64
2023-03-18T14:38:00.796Z,15.65
2023-03-18T14:40:28.238Z,15.60
2023-03-18T14:43:00.783Z,15.75
2023-03-18T14:45:44.637Z,15.66
2023-03-18T14:48:17.553Z,15.74
2023-03-18T14:50:48.991Z,15.76
2023-03-18T14:53:29.125Z,15.63
2023-03-18T14:55:58.959Z,15.57
2023-03-18T14:58:27.635Z,15.62
2023-03-18T15:01:00.758Z,15.68
2023-03-18T15:03:29.557Z,15.68
2023-03-18T15:06:02.519Z,15.74
2023-03-18T15:08:47.706Z,15.66
2023-03-18T15:11:17.255Z,15.54
2023-03-18T15:13:45.120Z,15.39
2023-03-18T15:16:19.220Z,15.76
2023-03-18T15:18:53.128Z,15.76
2023-03-18T15:21:28.769Z,15.64
2023-03-18T15:24:00.712Z,15.55
2023-03-18T15:26:35.133Z,15.50
2023-03-18T15:29:26.337Z,15.57
2023-03-18T15:31:53.592Z,15.40
2023-03-18T15:34:31.010Z,15.48
2023-03-18T15:37:03.534Z,15.52
2023-03-18T15:39:39.045Z,15.31
2023-03-18T15:42:20.448Z,15.38
2023-03-18T15:44:57.060Z,15.29
2023-03-18T15:47:30.654Z,15.61
2023-03-18T15:50:14.580Z,15.67
2023-03-18T15:52:43.066Z,15.54
2023-03-18T15:55:31.349Z,15.35
2023-03-18T15:57:58.983Z,15.31
2023-03-18T16:00:26.631Z,15.29
2023-03-18T16:02:53.839Z,15.14
2023-03-18T16:05:25.604Z,15.06
2023-03-18T16:07:54.247Z,15.13
2023-03-18T16:10:23.844Z,14.99
2023-03-18T16:12:54.826Z,14.99
2023-03-18T16:15:24.142Z,15.14
2023-03-18T16:17:53.438Z,14.96
2023-03-18T16:20:31.328Z,14.96
2023-03-18T16:22:59.636Z,14.90
2023-03-18T16:25:28.067Z,14.80
2023-03-18T16:28:00.638Z,14.91
2023-03-18T16:30:29.915Z,14.88
2023-03-18T16:33:00.804Z,14.46
2023-03-18T16:35:34.555Z,14.44
2023-03-18T16:38:01.844Z,14.71
2023-03-18T16:40:30.756Z,14.39
2023-03-18T16:42:57.812Z,14.53
2023-03-18T16:45:30.277Z,14.29
2023-03-18T16:48:01.194Z,14.48
2023-03-18T16:50:31.475Z,13.97
2023-03-18T16:52:58.516Z,13.93
2023-03-18T16:55:25.547Z,14.16
2023-03-18T16:58:03.535Z,14.26
2023-03-18T17:00:36.255Z,14.21
2023-03-18T17:03:02.857Z,13.86
2023-03-18T17:05:29.452Z,13.29
2023-03-18T17:07:57.603Z,13.93
2023-03-18T17:10:26.293Z,14.04
2023-03-18T17:12:59.624Z,13.14
2023-03-18T17:15:38.166Z,13.25
2023-03-18T17:18:12.719Z,13.08
2023-03-18T17:20:39.322Z,13.10
2023-03-18T17:23:06.076Z,13.39
2023-03-18T17:25:32.821Z,13.26
2023-03-18T17:28:04.599Z,13.17
2023-03-18T17:30:35.352Z,13.03
2023-03-18T17:33:04.339Z,12.77
2023-03-18T17:35:31.521Z,12.62
2023-03-18T17:37:58.319Z,12.47
2023-03-18T17:40:29.149Z,12.30
2023-03-18T17:42:56.284Z,12.19
2023-03-18T17:45:34.665Z,12.07
2023-03-18T17:48:15.380Z,12.04
2023-03-18T17:50:44.206Z,11.89
2023-03-18T17:53:31.607Z,11.84
2023-03-18T17:55:58.922Z,11.58
2023-03-18T17:58:28.361Z,11.59
2023-03-18T18:01:02.200Z,11.56
2023-03-18T18:03:29.684Z,11.25
2023-03-18T18:05:57.245Z,11.41
2023-03-18T18:08:25.610Z,11.18
2023-03-18T18:10:54.267Z,11.20
2023-03-18T18:13:23.057Z,11.19
2023-03-18T18:15:50.854Z,11.13
2023-03-18T18:18:24.892Z,10.96
2023-03-18T18:20:59.634Z,10.72
2023-03-18T18:23:32.221Z,10.70
2023-03-18T18:26:10.677Z,10.70
2023-03-18T18:28:39.448Z,10.50
2023-03-18T18:31:09.308Z,10.60
2023-03-18T18:33:37.764Z,10.55
2023-03-18T18:36:05.854Z,10.46
2023-03-18T18:38:32.788Z,10.40
2023-03-18T18:41:00.043Z,9.91
2023-03-18T18:43:27.191Z,10.23
2023-03-18T18:45:55.513Z,10.10
2023-03-18T18:48:40.868Z,10.13
2023-03-18T18:51:14.944Z,10.02
2023-03-18T18:53:43.616Z,9.98
2023-03-18T18:56:18.584Z,9.92
2023-03-18T18:58:45.953Z,9.82
2023-03-18T19:01:13.283Z,9.85
2023-03-18T19:03:41.445Z,9.85
2023-03-18T19:06:20.277Z,9.58
2023-03-18T19:08:47.145Z,9.55
2023-03-18T19:11:13.701Z,9.53
2023-03-18T19:13:40.219Z,9.70
2023-03-18T19:16:29.258Z,9.58
2023-03-18T19:18:55.813Z,9.50
2023-03-18T19:21:22.588Z,9.32
2023-03-18T19:23:49.830Z,9.46
2023-03-18T19:26:18.198Z,9.18
2023-03-18T19:28:57.400Z,9.34
2023-03-18T19:31:27.125Z,9.32
2023-03-18T19:33:54.537Z,9.24
2023-03-18T19:36:31.992Z,9.08
2023-03-18T19:39:06.070Z,8.89
2023-03-18T19:41:32.675Z,8.88
2023-03-18T19:44:11.929Z,8.88
2023-03-18T19:46:47.335Z,8.55
2023-03-18T19:49:39.411Z,8.99
2023-03-18T19:52:32.556Z,8.80
2023-03-18T19:55:08.213Z,8.74
2023-03-18T19:57:34.989Z,8.72
2023-03-18T20:00:05.093Z,8.32
2023-03-18T20:02:34.382Z,8.76
2023-03-18T20:05:04.029Z,8.67
2023-03-18T20:07:32.690Z,8.74
2023-03-18T20:09:59.671Z,8.63
2023-03-18T20:12:34.899Z,8.57
2023-03-18T20:15:05.199Z,8.58
2023-03-18T20:17:40.337Z,8.53
2023-03-18T20:20:16.309Z,8.50
2023-03-18T20:22:47.856Z,8.48
2023-03-18T20:25:25.382Z,8.33
2023-03-18T20:27:55.561Z,8.35
2023-03-18T20:30:28.752Z,8.32
2023-03-18T20:32:59.841Z,8.24
2023-03-18T20:35:28.890Z,8.18
2023-03-18T20:37:57.346Z,8.15
2023-03-18T20:40:27.723Z,7.95
2023-03-18T20:42:54.941Z,8.15
2023-03-18T20:45:24.526Z,8.14
2023-03-18T20:47:51.440Z,8.13
2023-03-18T20:50:20.378Z,7.74
2023-03-18T20:52:48.052Z,8.10
2023-03-18T20:55:25.432Z,8.09
2023-03-18T20:57:53.163Z,7.96
2023-03-18T21:00:23.957Z,8.04
2023-03-18T21:02:54.202Z,7.94
2023-03-18T21:05:21.860Z,7.72
2023-03-18T21:07:48.798Z,7.66
2023-03-18T21:10:18.971Z,7.67
2023-03-18T21:12:46.201Z,7.63
2023-03-18T21:15:19.278Z,7.58
2023-03-18T21:17:46.254Z,7.45
2023-03-18T21:20:23.030Z,7.41
2023-03-18T21:22:51.323Z,7.32
2023-03-18T21:25:26.499Z,7.30
2023-03-18T21:27:53.643Z,7.33
2023-03-18T21:30:24.486Z,7.33
2023-03-18T21:32:51.464Z,7.04
2023-03-18T21:35:26.185Z,7.32
2023-03-18T21:37:53.161Z,7.30
2023-03-18T21:40:24.850Z,7.26
2023-03-18T21:42:52.266Z,7.22
2023-03-18T21:45:22.790Z,7.16
2023-03-18T21:47:49.520Z,7.04
2023-03-18T21:50:24.483Z,7.10
2023-03-18T21:52:52.028Z,7.05
2023-03-18T21:55:18.759Z,6.97
2023-03-18T21:57:47.657Z,6.97
2023-03-18T22:00:20.163Z,6.93
2023-03-18T22:02:47.845Z,6.93
2023-03-18T22:05:20.618Z,7.05
2023-03-18T22:07:47.788Z,6.94
2023-03-18T22:10:16.551Z,6.93
2023-03-18T22:12:43.583Z,6.74
2023-03-18T22:15:33.249Z,6.82
2023-03-18T22:17:59.890Z,6.74
2023-03-18T22:20:26.564Z,6.70
2023-03-18T22:22:53.033Z,6.66
2023-03-18T22:25:28.936Z,6.71
2023-03-18T22:27:57.013Z,6.74
2023-03-18T22:30:24.935Z,6.57
2023-03-18T22:32:52.400Z,6.60
2023-03-18T22:35:21.738Z,6.59
2023-03-18T22:37:48.631Z,6.51
2023-03-18T22:40:21.217Z,6.67
2023-03-18T22:42:49.830Z,6.48
2023-03-18T22:45:23.525Z,6.42
2023-03-18T22:47:51.526Z,6.47
2023-03-18T22:50:18.413Z,6.35
2023-03-18T22:52:45.677Z,6.49
2023-03-18T22:55:20.938Z,6.36
2023-03-18T22:57:48.709Z,6.46
2023-03-18T23:00:34.891Z,6.52
2023-03-18T23:03:01.530Z,6.38
2023-03-18T23:05:28.357Z,6.26
2023-03-18T23:07:55.159Z,6.44
2023-03-18T23:10:21.931Z,6.19
2023-03-18T23:12:48.562Z,6.39
2023-03-18T23:15:18.118Z,6.42
2023-03-18T23:17:45.815Z,6.32
2023-03-18T23:20:14.303Z,6.28
2023-03-18T23:22:41.350Z,6.40
2023-03-18T23:25:14.496Z,6.38
2023-03-18T23:27:40.994Z,6.20
2023-03-18T23:30:08.259Z,6.34
2023-03-18T23:32:35.343Z,6.30
2023-03-18T23:35:01.965Z,6.31
2023-03-18T23:37:28.449Z,6.29
2023-03-18T23:39:54.886Z,6.14
2023-03-18T23:42:21.576Z,6.22
2023-03-18T23:44:48.091Z,6.20
2023-03-18T23:47:16.883Z,6.25
2023-03-18T23:49:43.354Z,6.16
2023-03-18T23:52:12.647Z,6.11
2023-03-18T23:54:39.483Z,6.16
2023-03-18T23:57:08.915Z,6.12
2023-03-18T23:59:36.554Z,5.75
